KJCT - Junction/Kimble Cnty, TX, US

Issued at 1720 UTC 29 May 2020
Updated at 2326 UTC 29 May 2020
Potential Impact None Slight Moderate High
Time2251Z 30/00Z 30/01Z 30/02Z 30/03Z 30/04Z 30/05Z 30/06Z 30/07Z 30/08Z 30/09Z 30/10Z 30/11Z 30/12Z>>
Type OBS PRVL PRVL PRVL PRVL PRVL PRVL PRVL PRVL PRVL PRVL PRVL PRVL PRVL
VIS 10 >6 >6 >6 >6 >6 >6 >6 >6 >6 >6 >6 >6 >6
CIG -- -- -- -- -- -- -- -- -- -- -- -- -- --
Cover CLR SKC SKC SKC SKC SKC SKC SKC SKC SKC SKC SKC SKC SKC
FltCat VFR VFR VFR VFR VFR VFR VFR VFR VFR VFR VFR VFR VFR VFR
WX -- -- -- -- -- -- -- -- -- -- -- -- -- --
WDir 90 60 60 VRB VRB VRB VRB VRB VRB VRB VRB VRB VRB VRB
WSpd 10 9 9 3 3 3 3 3 3 3 3 3 3 3
WGst -- -- -- -- -- -- -- -- -- -- -- -- -- --
Raw TAF
KJCT 291720Z 2918/3018 06009KT P6SM SKC
  FM300200 VRB03KT P6SM SKC


Raw METAR
KJCT 292251Z AUTO 09010KT 10SM CLR 29/13 A3015 RMK AO2 SLP176 T02890133
KJCT 292151Z AUTO 07009G17KT 10SM FEW070 29/14 A3016 RMK AO2 SLP179 T02890144
KJCT 292051Z AUTO 11007KT 10SM CLR 29/16 A3017 RMK AO2 SLP184 T02890156 56010

METAR Board
Radar Display
Forecast Discussion
For situational awareness. Not to be used for flight planning purposes.